createdAt,value
2016-09-15T00:00:35.789Z,953.73
2016-09-15T00:01:35.785Z,953.69
2016-09-15T00:02:35.783Z,953.7
2016-09-15T00:03:35.781Z,953.66
2016-09-15T00:04:35.781Z,953.67
2016-09-15T00:05:35.777Z,953.66
2016-09-15T00:06:35.774Z,953.64
2016-09-15T00:07:35.771Z,953.67
2016-09-15T00:08:35.769Z,953.66
2016-09-15T00:09:35.765Z,953.63
2016-09-15T00:10:35.762Z,953.62
2016-09-15T00:11:35.766Z,953.61
2016-09-15T00:12:35.759Z,953.62
2016-09-15T00:13:35.753Z,953.63
2016-09-15T00:14:35.764Z,953.56
2016-09-15T00:15:35.750Z,953.58
2016-09-15T00:16:35.750Z,953.6
2016-09-15T00:17:35.744Z,953.56
2016-09-15T00:18:35.744Z,953.58
2016-09-15T00:19:35.740Z,953.6
2016-09-15T00:20:35.734Z,953.55
2016-09-15T00:21:35.740Z,953.58
2016-09-15T00:22:35.731Z,953.59
2016-09-15T00:23:35.726Z,953.57
2016-09-15T00:24:35.730Z,953.54
2016-09-15T00:25:35.722Z,953.54
2016-09-15T00:26:35.717Z,953.53
2016-09-15T00:27:35.716Z,953.55
2016-09-15T00:28:35.710Z,953.54
2016-09-15T00:29:35.710Z,953.53
2016-09-15T00:30:35.708Z,953.57
2016-09-15T00:31:35.707Z,953.52
2016-09-15T00:32:35.698Z,953.53
2016-09-15T00:33:35.700Z,953.56
2016-09-15T00:34:35.699Z,953.53
2016-09-15T00:35:35.692Z,953.53
2016-09-15T00:36:35.690Z,953.53
2016-09-15T00:37:35.689Z,953.5
2016-09-15T00:38:35.681Z,953.5
2016-09-15T00:39:35.685Z,953.52
2016-09-15T00:40:35.675Z,953.47
2016-09-15T00:41:35.675Z,953.46
2016-09-15T00:42:35.668Z,953.5
2016-09-15T00:43:35.666Z,953.49
2016-09-15T00:44:35.667Z,953.49
2016-09-15T00:45:35.671Z,953.48
2016-09-15T00:46:35.657Z,953.48
2016-09-15T00:47:35.663Z,953.45
2016-09-15T00:48:35.652Z,953.44
2016-09-15T00:49:35.646Z,953.47
2016-09-15T00:50:35.656Z,953.44
2016-09-15T00:51:35.649Z,953.49
2016-09-15T00:52:35.640Z,953.44
2016-09-15T00:53:35.641Z,953.46
2016-09-15T00:54:35.645Z,953.44
2016-09-15T00:55:35.629Z,953.41
2016-09-15T00:56:35.630Z,953.41
2016-09-15T00:57:35.627Z,953.38
2016-09-15T00:58:35.625Z,953.37
2016-09-15T00:59:35.623Z,953.37
2016-09-15T01:00:35.618Z,953.36
2016-09-15T01:01:35.615Z,953.37
2016-09-15T01:02:35.609Z,953.33
2016-09-15T01:03:35.608Z,953.36
2016-09-15T01:04:35.608Z,953.36
2016-09-15T01:05:35.601Z,953.38
2016-09-15T01:06:35.599Z,953.37
2016-09-15T01:07:35.602Z,953.39
2016-09-15T01:08:35.595Z,953.38
2016-09-15T01:09:35.588Z,953.41
2016-09-15T01:10:35.590Z,953.4
2016-09-15T01:11:35.582Z,953.39
2016-09-15T01:12:35.578Z,953.4
2016-09-15T01:13:35.581Z,953.37
2016-09-15T01:14:35.572Z,953.36
2016-09-15T01:15:35.571Z,953.37
2016-09-15T01:16:35.565Z,953.35
2016-09-15T01:17:35.563Z,953.33
2016-09-15T01:18:35.557Z,953.3
2016-09-15T01:19:35.555Z,953.27
2016-09-15T01:20:35.562Z,953.32
2016-09-15T01:21:35.553Z,953.24
2016-09-15T01:22:35.545Z,953.26
2016-09-15T01:23:35.548Z,953.23
2016-09-15T01:24:35.541Z,953.25
2016-09-15T01:25:35.536Z,953.19
2016-09-15T01:26:35.533Z,953.2
2016-09-15T01:27:35.531Z,953.2
2016-09-15T01:28:35.525Z,953.25
2016-09-15T01:29:35.525Z,953.21
2016-09-15T01:30:35.520Z,953.2
2016-09-15T01:31:35.521Z,953.2
2016-09-15T01:32:35.514Z,953.21
2016-09-15T01:33:35.508Z,953.21
2016-09-15T01:34:35.505Z,953.21
2016-09-15T01:35:35.506Z,953.19
2016-09-15T01:36:35.502Z,953.16
2016-09-15T01:37:35.498Z,953.21
2016-09-15T01:38:35.491Z,953.19
2016-09-15T01:39:35.499Z,953.18
2016-09-15T01:40:35.485Z,953.18
2016-09-15T01:41:35.484Z,953.15
2016-09-15T01:42:35.483Z,953.14
2016-09-15T01:43:35.479Z,953.13
2016-09-15T01:44:35.470Z,953.06
2016-09-15T01:45:35.472Z,953.09
2016-09-15T01:46:35.465Z,953.12
2016-09-15T01:47:35.464Z,953.07
2016-09-15T01:48:35.457Z,953.09
2016-09-15T01:49:35.457Z,953.04
2016-09-15T01:50:35.501Z,953.07
2016-09-15T01:51:35.455Z,953.1
2016-09-15T01:52:35.448Z,953.1
2016-09-15T01:53:35.439Z,953.1
2016-09-15T01:54:35.438Z,953.07
2016-09-15T01:55:35.435Z,953.05
2016-09-15T01:56:35.428Z,953.09
2016-09-15T01:57:35.426Z,953.09
2016-09-15T01:58:35.425Z,953.09
2016-09-15T01:59:35.418Z,953.14
2016-09-15T02:00:35.416Z,953.11
2016-09-15T02:01:35.419Z,953.12
2016-09-15T02:02:35.407Z,953.1
2016-09-15T02:03:35.403Z,953.12
2016-09-15T02:04:35.398Z,953.11
2016-09-15T02:05:35.399Z,953.13
2016-09-15T02:06:35.392Z,953.13
2016-09-15T02:07:35.395Z,953.14
2016-09-15T02:08:35.385Z,953.13
2016-09-15T02:09:35.381Z,953.12
2016-09-15T02:10:35.382Z,953.13
2016-09-15T02:11:35.380Z,953.1
2016-09-15T02:12:35.370Z,953.14
2016-09-15T02:13:35.368Z,953.1
2016-09-15T02:14:35.364Z,953.09
2016-09-15T02:15:35.372Z,953.07
2016-09-15T02:16:35.358Z,953.05
2016-09-15T02:17:35.354Z,953.04
2016-09-15T02:18:35.355Z,953.02
2016-09-15T02:19:35.347Z,953.03
2016-09-15T02:20:35.347Z,953
2016-09-15T02:21:35.338Z,953.03
2016-09-15T02:22:35.337Z,953
2016-09-15T02:23:35.331Z,953.01
2016-09-15T02:24:35.331Z,953.03
2016-09-15T02:25:35.327Z,953.08
2016-09-15T02:26:35.326Z,953.06
2016-09-15T02:27:35.325Z,953.02
2016-09-15T02:28:35.311Z,953.06
2016-09-15T02:29:35.316Z,953.08
2016-09-15T02:30:35.312Z,953.06
2016-09-15T02:31:35.305Z,953.09
2016-09-15T02:32:35.301Z,953.08
2016-09-15T02:33:35.298Z,953.09
2016-09-15T02:34:35.301Z,953.06
2016-09-15T02:35:35.292Z,953.09
2016-09-15T02:36:35.286Z,953.06
2016-09-15T02:37:35.280Z,953.06
2016-09-15T02:38:35.282Z,953.06
2016-09-15T02:39:35.273Z,953.04
2016-09-15T02:40:35.271Z,953.04
2016-09-15T02:41:35.272Z,953.08
2016-09-15T02:42:35.270Z,953.07
2016-09-15T02:43:35.260Z,953.06
2016-09-15T02:44:35.259Z,953.05
2016-09-15T02:45:35.259Z,953.07
2016-09-15T02:46:35.252Z,953.06
2016-09-15T02:47:35.244Z,953.01
2016-09-15T02:48:35.243Z,953.05
2016-09-15T02:49:35.241Z,952.98
2016-09-15T02:50:35.238Z,953.02
2016-09-15T02:51:35.233Z,953.01
2016-09-15T02:52:35.229Z,953.02
2016-09-15T02:53:35.227Z,952.98
2016-09-15T02:54:35.219Z,953
2016-09-15T02:55:35.218Z,952.97
2016-09-15T02:56:35.216Z,952.98
2016-09-15T02:57:35.218Z,952.96
2016-09-15T02:58:35.209Z,952.97
2016-09-15T02:59:35.210Z,952.98
2016-09-15T03:00:35.201Z,952.95
2016-09-15T03:01:35.196Z,952.94
2016-09-15T03:02:35.193Z,952.95
2016-09-15T03:03:35.196Z,952.96
2016-09-15T03:04:35.188Z,952.94
2016-09-15T03:05:35.183Z,952.92
2016-09-15T03:06:35.183Z,952.99
2016-09-15T03:07:35.178Z,952.99
2016-09-15T03:08:35.173Z,952.96
2016-09-15T03:09:35.170Z,952.98
2016-09-15T03:10:35.170Z,952.99
2016-09-15T03:11:35.159Z,953
2016-09-15T03:12:35.160Z,952.98
2016-09-15T03:13:35.157Z,952.96
2016-09-15T03:14:35.150Z,952.99
2016-09-15T03:15:35.150Z,952.98
2016-09-15T03:16:35.146Z,952.96
2016-09-15T03:17:35.141Z,952.94
2016-09-15T03:18:35.134Z,952.96
2016-09-15T03:19:35.131Z,952.89
2016-09-15T03:20:35.129Z,952.93
2016-09-15T03:21:35.122Z,952.88
2016-09-15T03:22:35.128Z,952.9
2016-09-15T03:23:35.114Z,952.91
2016-09-15T03:24:35.115Z,952.89
2016-09-15T03:25:35.111Z,952.87
2016-09-15T03:26:35.116Z,952.85
2016-09-15T03:27:35.100Z,952.84
2016-09-15T03:28:35.105Z,952.84
2016-09-15T03:29:35.097Z,952.82
2016-09-15T03:30:35.089Z,952.82
2016-09-15T03:31:35.089Z,952.82
2016-09-15T03:32:35.085Z,952.79
2016-09-15T03:33:35.083Z,952.8
2016-09-15T03:34:35.083Z,952.79
2016-09-15T03:35:35.076Z,952.8
2016-09-15T03:36:35.069Z,952.84
2016-09-15T03:37:35.063Z,952.81
2016-09-15T03:38:35.059Z,952.75
2016-09-15T03:39:35.056Z,952.75
2016-09-15T03:40:35.051Z,952.72
2016-09-15T03:41:35.049Z,952.75
2016-09-15T03:42:35.041Z,952.74
2016-09-15T03:43:35.042Z,952.73
2016-09-15T03:44:35.040Z,952.73
2016-09-15T03:45:35.030Z,952.72
2016-09-15T03:46:35.026Z,952.73
2016-09-15T03:47:35.024Z,952.71
2016-09-15T03:48:35.018Z,952.73
2016-09-15T03:49:35.013Z,952.68
2016-09-15T03:50:35.008Z,952.7
2016-09-15T03:51:35.006Z,952.68
2016-09-15T03:52:35.001Z,952.64
2016-09-15T03:53:35.017Z,952.67
2016-09-15T03:54:34.994Z,952.67
2016-09-15T03:55:34.988Z,952.65
2016-09-15T03:56:34.987Z,952.65
2016-09-15T03:57:34.978Z,952.66
2016-09-15T03:58:34.977Z,952.69
2016-09-15T03:59:34.970Z,952.75
2016-09-15T04:00:34.969Z,952.72
2016-09-15T04:01:34.963Z,952.7
2016-09-15T04:02:34.968Z,952.74
2016-09-15T04:03:34.954Z,952.73
2016-09-15T04:04:34.950Z,952.75
2016-09-15T04:05:34.944Z,952.78
2016-09-15T04:06:34.943Z,952.78
2016-09-15T04:07:34.935Z,952.79
2016-09-15T04:08:34.935Z,952.81
2016-09-15T04:09:34.927Z,952.82
2016-09-15T04:10:34.932Z,952.86
2016-09-15T04:11:34.936Z,952.83
2016-09-15T04:12:34.912Z,952.87
2016-09-15T04:13:34.908Z,952.87
2016-09-15T04:14:34.910Z,952.82
2016-09-15T04:15:34.900Z,952.86
2016-09-15T04:16:34.896Z,952.83
2016-09-15T04:17:34.890Z,952.82
2016-09-15T04:18:34.886Z,952.81
2016-09-15T04:19:34.889Z,952.81
2016-09-15T04:20:34.893Z,952.81
2016-09-15T04:21:34.873Z,952.81
2016-09-15T04:22:34.865Z,952.81
2016-09-15T04:23:34.861Z,952.84
2016-09-15T04:24:34.858Z,952.84
2016-09-15T04:25:34.851Z,952.84
2016-09-15T04:26:34.847Z,952.81
2016-09-15T04:27:34.846Z,952.87
2016-09-15T04:28:34.838Z,952.83
2016-09-15T04:29:34.834Z,952.84
2016-09-15T04:30:34.827Z,952.89
2016-09-15T04:31:34.824Z,952.85
2016-09-15T04:32:34.818Z,952.87
2016-09-15T04:33:34.834Z,952.86
2016-09-15T04:34:34.808Z,952.87
2016-09-15T04:35:34.804Z,952.88
2016-09-15T04:36:34.808Z,952.89
2016-09-15T04:37:34.796Z,952.9
2016-09-15T04:38:34.789Z,952.89
2016-09-15T04:39:34.782Z,952.92
2016-09-15T04:40:34.779Z,952.93
2016-09-15T04:41:34.773Z,952.91
2016-09-15T04:42:34.771Z,952.9
2016-09-15T04:43:34.763Z,952.94
2016-09-15T04:44:34.764Z,952.93
2016-09-15T04:45:34.769Z,952.95
2016-09-15T04:46:34.750Z,952.96
2016-09-15T04:47:34.743Z,952.98
2016-09-15T04:48:34.739Z,953
2016-09-15T04:49:34.734Z,952.96
2016-09-15T04:50:34.728Z,953.03
2016-09-15T04:51:34.726Z,953
2016-09-15T04:52:34.722Z,953.02
2016-09-15T04:53:34.715Z,953.01
2016-09-15T04:54:34.706Z,953
2016-09-15T04:55:34.703Z,953.03
2016-09-15T04:56:34.698Z,953
2016-09-15T04:57:34.693Z,953.01
2016-09-15T04:58:34.691Z,952.98
2016-09-15T04:59:34.682Z,952.95
2016-09-15T05:00:34.677Z,953.01
2016-09-15T05:01:34.671Z,952.98
2016-09-15T05:02:34.669Z,953.01
2016-09-15T05:03:34.676Z,953.04
2016-09-15T05:04:34.658Z,953.04
2016-09-15T05:05:34.652Z,953.03
2016-09-15T05:06:34.651Z,953.05
2016-09-15T05:07:34.643Z,953.06
2016-09-15T05:08:34.637Z,953.06
2016-09-15T05:09:34.634Z,953.06
2016-09-15T05:10:34.625Z,953.09
2016-09-15T05:11:34.619Z,953.11
2016-09-15T05:12:34.620Z,953.07
2016-09-15T05:13:34.608Z,953.08
2016-09-15T05:14:34.608Z,953.09
2016-09-15T05:15:34.602Z,953.05
2016-09-15T05:16:34.596Z,953.06
2016-09-15T05:17:34.590Z,953.1
2016-09-15T05:18:34.583Z,953.05
2016-09-15T05:19:34.582Z,953.1
2016-09-15T05:20:34.576Z,953.11
2016-09-15T05:21:34.571Z,953.08
2016-09-15T05:22:34.562Z,953.03
2016-09-15T05:23:34.557Z,953.09
2016-09-15T05:24:34.552Z,953.05
2016-09-15T05:25:34.552Z,953.08
2016-09-15T05:26:34.559Z,953.09
2016-09-15T05:27:34.538Z,953.09
2016-09-15T05:28:34.532Z,953.1
2016-09-15T05:29:34.527Z,953.11
2016-09-15T05:30:34.523Z,953.12
2016-09-15T05:31:34.533Z,953.12
2016-09-15T05:32:34.511Z,953.15
2016-09-15T05:33:34.510Z,953.14
2016-09-15T05:34:34.503Z,953.13
2016-09-15T05:35:34.498Z,953.14
2016-09-15T05:36:34.493Z,953.16
2016-09-15T05:37:34.485Z,953.16
2016-09-15T05:38:34.480Z,953.14
2016-09-15T05:39:34.475Z,953.17
2016-09-15T05:40:34.469Z,953.15
2016-09-15T05:41:34.467Z,953.15
2016-09-15T05:42:34.460Z,953.17
2016-09-15T05:43:34.456Z,953.18
2016-09-15T05:44:34.452Z,953.2
2016-09-15T05:45:34.446Z,953.18
2016-09-15T05:46:34.437Z,953.17
2016-09-15T05:47:34.436Z,953.16
2016-09-15T05:48:34.434Z,953.16
2016-09-15T05:49:34.424Z,953.16
2016-09-15T05:50:34.423Z,953.18
2016-09-15T05:51:34.421Z,953.15
2016-09-15T05:52:34.410Z,953.16
2016-09-15T05:53:34.403Z,953.17
2016-09-15T05:54:34.399Z,953.21
2016-09-15T05:55:34.395Z,953.21
2016-09-15T05:56:34.387Z,953.23
2016-09-15T05:57:34.385Z,953.25
2016-09-15T05:58:34.379Z,953.24
2016-09-15T05:59:34.374Z,953.32
2016-09-15T06:00:34.367Z,953.28
2016-09-15T06:01:34.363Z,953.34
2016-09-15T06:02:34.356Z,953.29
2016-09-15T06:03:34.352Z,953.3
2016-09-15T06:04:34.348Z,953.32
2016-09-15T06:05:34.343Z,953.3
2016-09-15T06:06:34.343Z,953.38
2016-09-15T06:07:34.336Z,953.31
2016-09-15T06:08:34.329Z,953.31
2016-09-15T06:09:34.323Z,953.29
2016-09-15T06:10:34.322Z,953.32
2016-09-15T06:11:34.315Z,953.3
2016-09-15T06:12:34.313Z,953.28
2016-09-15T06:13:34.304Z,953.29
2016-09-15T06:14:34.298Z,953.26
2016-09-15T06:15:34.294Z,953.23
2016-09-15T06:16:34.290Z,953.26
2016-09-15T06:17:34.287Z,953.24
2016-09-15T06:18:34.299Z,953.22
2016-09-15T06:19:34.278Z,953.22
2016-09-15T06:20:34.270Z,953.23
2016-09-15T06:21:34.265Z,953.19
2016-09-15T06:22:34.261Z,953.22
2016-09-15T06:23:34.259Z,953.2
2016-09-15T06:24:34.255Z,953.2
2016-09-15T06:25:34.246Z,953.22
2016-09-15T06:26:34.242Z,953.14
2016-09-15T06:27:34.241Z,953.15
2016-09-15T06:28:34.234Z,953.15
2016-09-15T06:29:34.231Z,953.14
2016-09-15T06:30:34.224Z,953.14
2016-09-15T06:31:34.218Z,953.17
2016-09-15T06:32:34.219Z,953.11
2016-09-15T06:33:34.212Z,953.11
2016-09-15T06:34:34.205Z,953.12
2016-09-15T06:35:34.200Z,953.1
2016-09-15T06:36:34.198Z,953.09
2016-09-15T06:37:34.192Z,953.08
2016-09-15T06:38:34.188Z,953.07
2016-09-15T06:39:34.384Z,953.08
2016-09-15T06:40:34.181Z,953.07
2016-09-15T06:41:34.179Z,953.08
2016-09-15T06:42:34.168Z,953.06
2016-09-15T06:43:34.165Z,953.07
2016-09-15T06:44:34.161Z,953.07
2016-09-15T06:45:34.159Z,953.08
2016-09-15T06:46:34.152Z,953.07
2016-09-15T06:47:34.146Z,953.09
2016-09-15T06:48:34.143Z,953.08
2016-09-15T06:49:34.143Z,953.08
2016-09-15T06:50:34.140Z,953.08
2016-09-15T06:51:34.132Z,953.09
2016-09-15T06:52:34.125Z,953.1
2016-09-15T06:53:34.126Z,953.14
2016-09-15T06:54:34.118Z,953.11
2016-09-15T06:55:34.114Z,953.16
2016-09-15T06:56:34.121Z,953.11
2016-09-15T06:57:34.105Z,953.13
2016-09-15T06:58:34.105Z,953.16
2016-09-15T06:59:34.099Z,953.18
2016-09-15T07:00:34.096Z,953.14
2016-09-15T07:01:34.089Z,953.19
2016-09-15T07:02:34.086Z,953.18
2016-09-15T07:03:34.083Z,953.1
2016-09-15T07:04:34.080Z,953.12
2016-09-15T07:05:34.073Z,953.11
2016-09-15T07:06:34.069Z,953.12
2016-09-15T07:07:34.070Z,953.12
2016-09-15T07:08:34.064Z,953.13
2016-09-15T07:09:34.057Z,953.11
2016-09-15T07:10:34.053Z,953.12
2016-09-15T07:11:34.049Z,953.12
2016-09-15T07:12:34.046Z,953.1
2016-09-15T07:13:34.042Z,953.08
2016-09-15T07:14:34.040Z,953.07
2016-09-15T07:15:34.037Z,953.11
2016-09-15T07:16:34.036Z,953.09
2016-09-15T07:17:34.079Z,953.09
2016-09-15T07:18:34.025Z,953.12
2016-09-15T07:19:34.023Z,953.11
2016-09-15T07:20:34.018Z,953.09
2016-09-15T07:21:34.016Z,953.1
2016-09-15T07:22:34.014Z,953.07
2016-09-15T07:23:34.011Z,953.05
2016-09-15T07:24:34.005Z,953.01
2016-09-15T07:25:34.009Z,953.05
2016-09-15T07:26:34.004Z,953
2016-09-15T07:27:33.997Z,953.04
2016-09-15T07:28:33.993Z,953.02
2016-09-15T07:29:33.994Z,953.04
2016-09-15T07:30:33.991Z,953.06
2016-09-15T07:31:33.988Z,953.07
2016-09-15T07:32:33.982Z,953.06
2016-09-15T07:33:33.981Z,953.05
2016-09-15T07:34:33.976Z,953.09
2016-09-15T07:35:33.976Z,953.07
2016-09-15T07:36:33.978Z,953.08
2016-09-15T07:37:33.967Z,953.11
2016-09-15T07:38:33.966Z,953.11
2016-09-15T07:39:33.961Z,953.05
2016-09-15T07:40:33.963Z,953.11
2016-09-15T07:41:33.959Z,953.1
2016-09-15T07:42:33.956Z,953.05
2016-09-15T07:43:33.956Z,953.1
2016-09-15T07:44:33.951Z,953.12
2016-09-15T07:45:33.949Z,953.07
2016-09-15T07:46:34.087Z,953.07
2016-09-15T07:47:33.947Z,953.02
2016-09-15T07:48:33.987Z,953.01
2016-09-15T07:49:33.948Z,953.05
2016-09-15T07:50:33.939Z,953.06
2016-09-15T07:51:33.940Z,953.02
2016-09-15T07:52:33.938Z,953.02
2016-09-15T07:53:33.932Z,952.94
2016-09-15T07:54:33.945Z,952.95
2016-09-15T07:55:33.929Z,952.98
2016-09-15T07:56:33.927Z,952.91
2016-09-15T07:57:33.925Z,952.98
2016-09-15T07:58:33.929Z,953
2016-09-15T07:59:33.921Z,952.99
2016-09-15T08:00:33.921Z,953.03
2016-09-15T08:01:33.921Z,952.96
2016-09-15T08:02:33.919Z,952.96
2016-09-15T08:03:33.920Z,953.03
2016-09-15T08:04:33.914Z,952.96
2016-09-15T08:05:33.914Z,952.99
2016-09-15T08:06:33.919Z,952.98
2016-09-15T08:07:33.913Z,953
2016-09-15T08:08:33.912Z,953.02
2016-09-15T08:09:33.911Z,953
2016-09-15T08:10:33.912Z,952.98
2016-09-15T08:11:33.922Z,953.01
2016-09-15T08:12:33.909Z,953.01
2016-09-15T08:13:33.909Z,953.07
2016-09-15T08:14:33.908Z,953.04
2016-09-15T08:15:33.906Z,953.01
2016-09-15T08:16:33.905Z,953.05
2016-09-15T08:17:33.906Z,953.05
2016-09-15T08:18:33.908Z,953.08
2016-09-15T08:19:33.906Z,953.06
2016-09-15T08:20:33.911Z,953.08
2016-09-15T08:21:33.905Z,953.04
2016-09-15T08:22:33.902Z,953.04
2016-09-15T08:23:33.910Z,953.06
2016-09-15T08:24:33.902Z,953.08
2016-09-15T08:25:33.902Z,953.08
2016-09-15T08:26:33.899Z,953.08
2016-09-15T08:27:33.900Z,953.05
2016-09-15T08:28:33.899Z,953.05
2016-09-15T08:29:33.904Z,953.11
2016-09-15T08:30:33.901Z,953.09
2016-09-15T08:31:33.899Z,953.04
2016-09-15T08:32:33.906Z,953.06
2016-09-15T08:33:33.904Z,953.08
2016-09-15T08:34:33.901Z,953.09
2016-09-15T08:35:33.902Z,953.06
2016-09-15T08:36:33.907Z,953.09
2016-09-15T08:37:33.902Z,953.07
2016-09-15T08:38:33.902Z,953.08
2016-09-15T08:39:33.905Z,953.08
2016-09-15T08:40:33.899Z,953.1
2016-09-15T08:41:33.901Z,953.1
2016-09-15T08:42:33.902Z,953.07
2016-09-15T08:43:33.913Z,953.07
2016-09-15T08:44:33.902Z,953.06
2016-09-15T08:45:33.903Z,953.04
2016-09-15T08:46:33.906Z,953.09
2016-09-15T08:47:33.908Z,953.03
2016-09-15T08:48:33.908Z,953.05
2016-09-15T08:49:33.904Z,953.08
2016-09-15T08:50:33.928Z,952.98
2016-09-15T08:51:33.912Z,953.02
2016-09-15T08:52:33.923Z,952.98
2016-09-15T08:53:34.078Z,952.98
2016-09-15T08:54:34.061Z,952.96
2016-09-15T08:55:34.167Z,952.98
2016-09-15T08:56:33.909Z,952.95
2016-09-15T08:57:33.910Z,952.92
2016-09-15T08:58:33.915Z,952.91
2016-09-15T08:59:33.911Z,952.96
2016-09-15T09:00:33.913Z,952.92
2016-09-15T09:01:33.914Z,952.91
2016-09-15T09:02:33.917Z,952.89
2016-09-15T09:03:33.915Z,952.91
2016-09-15T09:04:33.916Z,952.92
2016-09-15T09:05:33.917Z,952.88
2016-09-15T09:06:33.917Z,952.89
2016-09-15T09:07:33.920Z,952.93
2016-09-15T09:08:33.919Z,952.88
2016-09-15T09:09:33.919Z,952.89
2016-09-15T09:10:33.920Z,952.87
2016-09-15T09:11:33.923Z,952.92
2016-09-15T09:12:33.921Z,952.88
2016-09-15T09:13:33.921Z,952.84
2016-09-15T09:14:33.924Z,952.86
2016-09-15T09:15:33.927Z,952.83
2016-09-15T09:16:33.925Z,952.88
2016-09-15T09:17:33.925Z,952.86
2016-09-15T09:18:33.930Z,952.86
2016-09-15T09:19:33.930Z,952.83
2016-09-15T09:20:33.932Z,952.86
2016-09-15T09:21:33.936Z,952.9
2016-09-15T09:22:33.933Z,952.88
2016-09-15T09:23:33.943Z,952.81
2016-09-15T09:24:33.932Z,952.81
2016-09-15T09:25:33.939Z,952.79
2016-09-15T09:26:33.936Z,952.82
2016-09-15T09:27:33.936Z,952.79
2016-09-15T09:28:33.937Z,952.73
2016-09-15T09:29:33.937Z,952.79
2016-09-15T09:30:33.941Z,952.8
2016-09-15T09:31:33.941Z,952.8
2016-09-15T09:32:33.944Z,952.77
2016-09-15T09:33:33.946Z,952.73
2016-09-15T09:34:33.947Z,952.77
2016-09-15T09:35:33.945Z,952.78
2016-09-15T09:36:33.948Z,952.76
2016-09-15T09:37:33.948Z,952.75
2016-09-15T09:38:33.957Z,952.76
2016-09-15T09:39:33.955Z,952.71
2016-09-15T09:40:33.954Z,952.72
2016-09-15T09:41:33.967Z,952.76
2016-09-15T09:42:33.958Z,952.76
2016-09-15T09:43:33.963Z,952.68
2016-09-15T09:44:33.960Z,952.72
2016-09-15T09:45:33.961Z,952.71
2016-09-15T09:46:33.961Z,952.61
2016-09-15T09:47:33.963Z,952.61
2016-09-15T09:48:33.964Z,952.49
2016-09-15T09:49:33.967Z,952.58
2016-09-15T09:50:33.967Z,952.61
2016-09-15T09:51:33.973Z,952.57
2016-09-15T09:52:33.987Z,952.64
2016-09-15T09:53:33.974Z,952.63
2016-09-15T09:54:33.974Z,952.6
2016-09-15T09:55:33.981Z,952.6
2016-09-15T09:56:33.977Z,952.58
2016-09-15T09:57:33.984Z,952.51
2016-09-15T09:58:33.988Z,952.56
2016-09-15T09:59:33.986Z,952.51
2016-09-15T10:00:33.984Z,952.52
2016-09-15T10:01:33.986Z,952.56
2016-09-15T10:02:33.988Z,952.49
2016-09-15T10:03:33.991Z,952.47
2016-09-15T10:04:33.991Z,952.54
2016-09-15T10:05:33.995Z,952.48
2016-09-15T10:06:33.995Z,952.48
2016-09-15T10:07:33.997Z,952.44
2016-09-15T10:08:33.998Z,952.43
2016-09-15T10:09:34.009Z,952.42
2016-09-15T10:10:34.007Z,952.39
2016-09-15T10:11:34.007Z,952.39
2016-09-15T10:12:34.007Z,952.4
2016-09-15T10:13:34.017Z,952.38
2016-09-15T10:14:34.011Z,952.39
2016-09-15T10:15:34.014Z,952.44
2016-09-15T10:16:34.019Z,952.43
2016-09-15T10:17:34.021Z,952.45
2016-09-15T10:18:34.020Z,952.39
2016-09-15T10:19:34.019Z,952.45
2016-09-15T10:20:34.024Z,952.36
2016-09-15T10:21:34.024Z,952.38
2016-09-15T10:22:34.028Z,952.41
2016-09-15T10:23:34.028Z,952.36
2016-09-15T10:24:34.030Z,952.42
2016-09-15T10:25:34.033Z,952.41
2016-09-15T10:26:34.034Z,952.36
2016-09-15T10:27:34.040Z,952.43
2016-09-15T10:28:34.039Z,952.37
2016-09-15T10:29:34.045Z,952.38
2016-09-15T10:30:34.046Z,952.36
2016-09-15T10:31:34.059Z,952.35
2016-09-15T10:32:34.048Z,952.36
2016-09-15T10:33:34.049Z,952.31
2016-09-15T10:34:34.050Z,952.31
2016-09-15T10:35:34.056Z,952.31
2016-09-15T10:36:34.058Z,952.31
2016-09-15T10:37:34.065Z,952.31
2016-09-15T10:38:34.065Z,952.35
2016-09-15T10:39:34.062Z,952.3
2016-09-15T10:40:34.066Z,952.33
2016-09-15T10:41:34.065Z,952.3
2016-09-15T10:42:34.068Z,952.3
2016-09-15T10:43:34.074Z,952.31
2016-09-15T10:44:34.074Z,952.26
2016-09-15T10:45:34.075Z,952.29
2016-09-15T10:46:34.079Z,952.31
2016-09-15T10:47:34.080Z,952.35
2016-09-15T10:48:34.084Z,952.28
2016-09-15T10:49:34.086Z,952.33
2016-09-15T10:50:34.091Z,952.33
2016-09-15T10:51:34.091Z,952.32
2016-09-15T10:52:34.094Z,952.35
2016-09-15T10:53:34.093Z,952.36
2016-09-15T10:54:34.097Z,952.36
2016-09-15T10:55:34.100Z,952.33
2016-09-15T10:56:34.105Z,952.3
2016-09-15T10:57:34.115Z,952.31
2016-09-15T10:58:34.108Z,952.38
2016-09-15T10:59:34.141Z,952.28
2016-09-15T11:00:34.124Z,952.3
2016-09-15T11:01:34.117Z,952.27
2016-09-15T11:02:34.120Z,952.26
2016-09-15T11:03:34.123Z,952.31
2016-09-15T11:04:34.126Z,952.3
2016-09-15T11:05:34.123Z,952.3
2016-09-15T11:06:34.130Z,952.27
2016-09-15T11:07:34.128Z,952.28
2016-09-15T11:08:34.137Z,952.27
2016-09-15T11:09:34.134Z,952.32
2016-09-15T11:10:34.135Z,952.24
2016-09-15T11:11:34.143Z,952.24
2016-09-15T11:12:34.140Z,952.22
2016-09-15T11:13:34.143Z,952.17
2016-09-15T11:14:34.145Z,952.2
2016-09-15T11:15:34.148Z,952.24
2016-09-15T11:16:34.157Z,952.21
2016-09-15T11:17:34.159Z,952.2
2016-09-15T11:18:34.158Z,952.21
2016-09-15T11:19:34.157Z,952.23
2016-09-15T11:20:34.163Z,952.26
2016-09-15T11:21:34.164Z,952.28
2016-09-15T11:22:34.165Z,952.22
2016-09-15T11:23:34.167Z,952.19
2016-09-15T11:24:34.172Z,952.18
2016-09-15T11:25:34.173Z,952.18
2016-09-15T11:26:34.175Z,952.16
2016-09-15T11:27:34.178Z,952.14
2016-09-15T11:28:34.181Z,952.15
2016-09-15T11:29:34.181Z,952.17
2016-09-15T11:30:34.186Z,952.14
2016-09-15T11:31:34.189Z,952.12
2016-09-15T11:32:34.196Z,952.1
2016-09-15T11:33:34.193Z,952.15
2016-09-15T11:34:34.196Z,952.15
2016-09-15T11:35:34.197Z,952.14
2016-09-15T11:36:34.201Z,952.12
2016-09-15T11:37:34.209Z,952.13
2016-09-15T11:38:34.210Z,952.06
2016-09-15T11:39:34.212Z,952.11
2016-09-15T11:40:34.210Z,952.1
2016-09-15T11:41:34.215Z,952.1
2016-09-15T11:42:34.216Z,952.12
2016-09-15T11:43:34.217Z,952.11
2016-09-15T11:44:34.224Z,952.12
2016-09-15T11:45:34.224Z,952.06
2016-09-15T11:46:34.227Z,952.05
2016-09-15T11:47:34.228Z,952.03
2016-09-15T11:48:34.234Z,952.03
2016-09-15T11:49:34.235Z,952
2016-09-15T11:50:34.234Z,952
2016-09-15T11:51:34.237Z,951.97
2016-09-15T11:52:34.242Z,951.98
2016-09-15T11:53:34.244Z,951.96
2016-09-15T11:54:34.244Z,951.96
2016-09-15T11:55:34.249Z,951.99
2016-09-15T11:56:34.250Z,951.95
2016-09-15T11:57:34.261Z,951.99
2016-09-15T11:58:34.256Z,951.96
2016-09-15T11:59:34.259Z,951.94
2016-09-15T12:00:34.267Z,951.94
2016-09-15T12:01:34.266Z,951.95
2016-09-15T12:02:34.269Z,951.91
2016-09-15T12:03:34.268Z,951.96
2016-09-15T12:04:34.278Z,951.97
2016-09-15T12:05:34.273Z,952.01
2016-09-15T12:06:34.278Z,951.96
2016-09-15T12:07:34.286Z,951.95
2016-09-15T12:08:34.287Z,951.95
2016-09-15T12:09:34.284Z,951.93
2016-09-15T12:10:34.285Z,951.92
2016-09-15T12:11:34.289Z,951.88
2016-09-15T12:12:34.295Z,951.87
2016-09-15T12:13:34.293Z,951.84
2016-09-15T12:14:34.308Z,951.81
2016-09-15T12:15:34.300Z,951.81
2016-09-15T12:16:34.299Z,951.81
2016-09-15T12:17:34.304Z,951.81
2016-09-15T12:18:34.303Z,951.82
2016-09-15T12:19:34.310Z,951.81
2016-09-15T12:20:34.306Z,951.8
2016-09-15T12:21:34.313Z,951.79
2016-09-15T12:22:34.319Z,951.79
2016-09-15T12:23:34.314Z,951.76
2016-09-15T12:24:34.320Z,951.76
2016-09-15T12:25:34.320Z,951.74
2016-09-15T12:26:34.323Z,951.75
2016-09-15T12:27:34.324Z,951.77
2016-09-15T12:28:34.334Z,951.74
2016-09-15T12:29:34.330Z,951.7
2016-09-15T12:30:34.330Z,951.7
2016-09-15T12:31:34.334Z,951.7